Time;durP1;ratioP1;P1;durP2;ratioP2;P2;SDS_P1;SDS_P2;PMS_P1;PMS_P2;Temp;Humidity;BMP_temperature;BMP_pressure;BME280_temperature;BME280_humidity;BME280_pressure;Samples;Min_cycle;Max_cycle;Signal;HPM_P1;HPM_P2
2021/08/24 00:00:06;;;;;;;3.50;1.55;;;20.40;70.80;;;;;;5095004;28;20140;-71
2021/08/24 00:02:32;;;;;;;3.55;1.50;;;20.40;70.80;;;;;;5082347;28;20094;-71
2021/08/24 00:04:57;;;;;;;2.75;1.70;;;20.40;70.80;;;;;;5075307;28;20423;-71
2021/08/24 00:07:23;;;;;;;3.58;1.50;;;20.40;70.90;;;;;;5074541;28;20040;-71
2021/08/24 00:09:49;;;;;;;2.75;1.65;;;20.40;70.90;;;;;;5074717;28;20123;-70
2021/08/24 00:12:15;;;;;;;3.88;1.52;;;20.40;71.00;;;;;;5082945;28;20359;-69
2021/08/24 00:14:41;;;;;;;3.20;1.70;;;20.40;71.00;;;;;;5094778;28;20039;-70
2021/08/24 00:17:07;;;;;;;2.38;1.35;;;20.40;71.00;;;;;;5094817;28;20040;-71
2021/08/24 00:19:32;;;;;;;2.83;1.45;;;20.40;71.00;;;;;;5097424;28;20040;-71
2021/08/24 00:21:58;;;;;;;3.85;1.70;;;20.40;71.00;;;;;;5092024;28;20036;-70
2021/08/24 00:24:24;;;;;;;2.95;1.50;;;20.40;71.10;;;;;;5077904;28;20071;-70
2021/08/24 00:26:50;;;;;;;4.53;2.00;;;20.30;71.10;;;;;;5078259;28;20048;-71
2021/08/24 00:29:15;;;;;;;3.65;1.75;;;20.30;71.10;;;;;;5079171;28;20063;-71
2021/08/24 00:31:42;;;;;;;2.90;2.00;;;20.30;71.10;;;;;;5091456;28;20079;-71
2021/08/24 00:34:08;;;;;;;5.53;2.20;;;20.30;71.10;;;;;;5098083;28;20062;-71
2021/08/24 00:36:34;;;;;;;3.13;1.70;;;20.30;71.10;;;;;;5098592;28;20036;-71
2021/08/24 00:39:00;;;;;;;2.90;1.50;;;20.30;71.20;;;;;;5098104;28;20040;-71
2021/08/24 00:41:26;;;;;;;3.83;1.58;;;20.30;71.20;;;;;;5097065;28;20494;-71
2021/08/24 00:43:52;;;;;;;4.55;1.45;;;20.30;71.20;;;;;;5077992;28;20123;-70
2021/08/24 00:46:40;;;;;;;3.45;1.80;;;20.30;71.20;;;;;;5077642;28;20090;-70
2021/08/24 00:49:12;;;;;;;2.38;1.65;;;20.30;71.10;;;;;;5060252;28;20458;-71
2021/08/24 00:51:41;;;;;;;2.63;1.35;;;20.30;71.30;;;;;;5079708;28;20040;-71
2021/08/24 00:54:16;;;;;;;4.00;1.95;;;20.30;71.30;;;;;;5097661;28;20048;-71
2021/08/24 00:56:47;;;;;;;2.40;1.42;;;20.20;71.10;;;;;;5080197;28;20040;-71
2021/08/24 00:59:13;;;;;;;3.42;1.70;;;20.20;71.30;;;;;;5097725;28;20032;-70
2021/08/24 01:01:38;;;;;;;3.70;1.70;;;20.20;71.40;;;;;;5094958;28;20063;-71
2021/08/24 01:04:04;;;;;;;3.20;1.67;;;20.20;71.40;;;;;;5077662;28;20048;-70
2021/08/24 01:06:48;;;;;;;3.10;1.60;;;20.30;72.00;;;;;;5077500;28;20435;-70
2021/08/24 01:09:37;;;;;;;2.50;1.58;;;20.20;71.40;;;;;;5077264;28;20037;-71
2021/08/24 01:12:27;;;;;;;2.35;1.63;;;20.30;71.40;;;;;;5079754;28;20317;-71
2021/08/24 01:15:20;;;;;;;3.10;1.50;;;20.30;71.30;;;;;;5076982;28;20048;-70
2021/08/24 01:17:49;;;;;;;3.65;1.60;;;20.20;71.40;;;;;;5077285;28;20105;-70
2021/08/24 01:20:29;;;;;;;3.33;1.48;;;20.20;71.50;;;;;;5077634;28;20059;-70
2021/08/24 01:23:28;;;;;;;3.92;1.52;;;20.20;71.50;;;;;;5091577;28;20075;-70
2021/08/24 01:26:12;;;;;;;3.78;1.50;;;20.20;71.40;;;;;;5097568;28;20044;-71
2021/08/24 01:29:15;;;;;;;3.58;1.33;;;20.20;71.60;;;;;;5097236;28;20082;-71
2021/08/24 01:32:14;;;;;;;4.68;1.80;;;20.10;71.40;;;;;;5092240;28;20075;-71
2021/08/24 01:35:19;;;;;;;3.92;1.25;;;20.10;71.40;;;;;;5076592;28;20213;-71
2021/08/24 01:37:58;;;;;;;3.95;1.73;;;20.10;71.40;;;;;;5076504;28;20045;-71
2021/08/24 01:40:44;;;;;;;3.15;1.27;;;20.10;71.70;;;;;;5077234;28;20102;-71
2021/08/24 01:43:17;;;;;;;2.85;1.42;;;20.10;71.70;;;;;;5092868;28;20047;-71
2021/08/24 01:45:51;;;;;;;4.00;1.58;;;20.10;71.70;;;;;;5096725;28;20079;-70
2021/08/24 01:48:30;;;;;;;4.22;1.60;;;20.10;71.70;;;;;;5096750;28;20048;-71
2021/08/24 01:51:00;;;;;;;3.90;1.83;;;20.10;71.80;;;;;;5096857;28;20039;-71
2021/08/24 01:53:35;;;;;;;2.97;1.30;;;20.10;71.80;;;;;;5077681;28;20083;-71
2021/08/24 01:56:15;;;;;;;4.28;1.25;;;20.10;71.80;;;;;;5076204;28;20090;-71
2021/08/24 01:59:01;;;;;;;2.83;1.33;;;20.10;71.80;;;;;;5077622;28;20055;-71
2021/08/24 02:01:38;;;;;;;2.75;1.38;;;20.10;71.80;;;;;;5077581;28;20490;-70
2021/08/24 02:04:17;;;;;;;2.33;1.15;;;20.10;71.70;;;;;;5096185;28;20077;-71
2021/08/24 02:06:46;;;;;;;4.22;1.73;;;20.10;71.90;;;;;;5096319;28;20066;-70
2021/08/24 02:09:19;;;;;;;4.45;1.70;;;20.10;71.90;;;;;;5096412;28;20068;-71
2021/08/24 02:11:45;;;;;;;2.50;1.17;;;20.10;71.90;;;;;;5092447;28;20036;-71
2021/08/24 02:14:14;;;;;;;2.28;1.30;;;20.10;71.90;;;;;;5076048;28;20041;-71
2021/08/24 02:16:43;;;;;;;2.55;1.52;;;20.10;71.80;;;;;;5076001;28;20047;-70
2021/08/24 02:19:12;;;;;;;1.80;1.13;;;20.10;71.90;;;;;;5058290;28;20458;-71
2021/08/24 02:21:46;;;;;;;2.40;1.40;;;20.10;71.90;;;;;;5077977;28;20055;-71
2021/08/24 02:24:18;;;;;;;2.42;1.52;;;20.00;71.80;;;;;;5096266;28;20432;-71
2021/08/24 02:26:47;;;;;;;1.92;1.17;;;20.00;71.90;;;;;;5095719;28;20113;-71
2021/08/24 02:29:13;;;;;;;3.25;1.10;;;20.00;71.90;;;;;;5096296;28;20040;-71
2021/08/24 02:31:49;;;;;;;5.47;1.67;;;20.00;71.80;;;;;;5093153;28;20119;-71
2021/08/24 02:34:33;;;;;;;2.95;1.73;;;20.00;71.80;;;;;;5075419;28;20040;-71
2021/08/24 02:37:10;;;;;;;3.60;1.48;;;20.00;71.80;;;;;;5075640;28;20048;-70
2021/08/24 02:39:42;;;;;;;2.67;1.40;;;20.00;71.90;;;;;;5075571;28;20060;-71
2021/08/24 02:42:17;;;;;;;3.28;1.52;;;20.00;71.80;;;;;;5080998;28;20433;-70
2021/08/24 02:44:50;;;;;;;3.75;1.73;;;20.00;71.90;;;;;;5095779;28;20043;-71
2021/08/24 02:47:16;;;;;;;2.75;1.60;;;20.00;71.90;;;;;;5095678;28;20370;-70
2021/08/24 02:49:43;;;;;;;6.15;1.30;;;19.90;71.80;;;;;;5095701;28;20043;-71
2021/08/24 02:52:10;;;;;;;4.38;1.40;;;19.90;71.90;;;;;;5089802;28;20047;-70
2021/08/24 02:54:42;;;;;;;3.53;1.42;;;19.90;71.90;;;;;;5075964;28;20048;-71
2021/08/24 02:57:09;;;;;;;3.58;1.48;;;19.90;71.90;;;;;;5075649;28;20044;-71
2021/08/24 02:59:36;;;;;;;4.45;1.70;;;19.90;71.90;;;;;;5075428;28;20062;-71
2021/08/24 03:02:03;;;;;;;3.40;1.40;;;20.00;71.90;;;;;;5079537;28;20047;-70
2021/08/24 03:04:29;;;;;;;4.28;1.63;;;19.90;71.90;;;;;;5096228;28;20046;-71
2021/08/24 03:07:07;;;;;;;3.95;1.35;;;19.90;71.90;;;;;;5095272;28;20130;-71
2021/08/24 03:09:35;;;;;;;2.38;1.00;;;19.90;71.90;;;;;;5096029;28;20062;-71
2021/08/24 03:12:06;;;;;;;3.47;1.55;;;20.00;71.90;;;;;;5090693;28;20064;-71
2021/08/24 03:14:57;;;;;;;1.95;1.10;;;19.90;71.90;;;;;;5075326;28;20047;-71
2021/08/24 03:17:43;;;;;;;3.05;1.23;;;19.90;71.70;;;;;;5075208;28;20125;-70
2021/08/24 03:20:12;;;;;;;2.00;1.00;;;19.90;71.70;;;;;;5074571;28;20143;-71
2021/08/24 03:22:40;;;;;;;4.25;1.23;;;19.90;71.90;;;;;;5076242;28;20416;-71
2021/08/24 03:25:08;;;;;;;4.93;1.30;;;19.90;71.90;;;;;;5088193;28;20048;-71
2021/08/24 03:27:36;;;;;;;1.73;1.15;;;19.90;71.80;;;;;;5094794;28;20040;-71
2021/08/24 03:30:09;;;;;;;3.55;1.50;;;19.90;71.80;;;;;;5095349;28;20044;-70
2021/08/24 03:32:35;;;;;;;2.95;1.40;;;19.90;71.80;;;;;;5086622;28;20138;-70
2021/08/24 03:35:01;;;;;;;3.15;1.27;;;19.90;71.80;;;;;;5074991;28;20080;-71
2021/08/24 03:37:26;;;;;;;5.15;1.77;;;19.90;71.90;;;;;;5074925;28;20087;-71
2021/08/24 03:39:52;;;;;;;4.00;1.17;;;19.90;71.80;;;;;;5074982;28;20047;-70
2021/08/24 03:42:18;;;;;;;3.13;1.25;;;19.90;71.80;;;;;;5080336;28;20096;-71
2021/08/24 03:44:46;;;;;;;5.50;1.25;;;19.90;71.80;;;;;;5095522;28;20032;-71
2021/08/24 03:47:12;;;;;;;6.65;1.55;;;19.80;71.70;;;;;;5095031;28;20426;-70
2021/08/24 03:49:38;;;;;;;2.97;1.20;;;19.80;71.70;;;;;;5095195;28;20040;-71
2021/08/24 03:52:04;;;;;;;2.70;1.27;;;19.80;71.80;;;;;;5091567;28;20384;-71
2021/08/24 03:54:30;;;;;;;2.60;0.95;;;19.80;71.80;;;;;;5078661;28;20173;-71
2021/08/24 03:56:56;;;;;;;3.08;1.02;;;19.80;71.90;;;;;;5078445;28;20123;-71
2021/08/24 03:59:21;;;;;;;3.42;1.20;;;19.80;71.90;;;;;;5060777;28;20058;-71
2021/08/24 04:01:47;;;;;;;3.17;1.20;;;19.80;71.80;;;;;;5080675;28;20082;-71
2021/08/24 04:04:13;;;;;;;3.47;1.42;;;19.70;71.80;;;;;;5098816;28;20048;-71
2021/08/24 04:06:39;;;;;;;2.97;1.50;;;19.80;71.90;;;;;;5098812;28;20076;-71
2021/08/24 04:09:04;;;;;;;2.88;1.02;;;19.80;71.90;;;;;;5098467;28;20351;-70
2021/08/24 04:11:30;;;;;;;4.40;1.63;;;19.70;71.90;;;;;;5098459;28;20358;-71
2021/08/24 04:13:56;;;;;;;3.08;1.40;;;19.80;72.10;;;;;;5078250;28;20047;-71
2021/08/24 04:16:22;;;;;;;2.83;1.30;;;19.80;72.10;;;;;;5078553;28;20333;-70
2021/08/24 04:18:47;;;;;;;3.10;1.10;;;19.80;71.90;;;;;;5079000;28;20059;-70
2021/08/24 04:21:17;;;;;;;2.78;1.23;;;19.80;72.00;;;;;;5078472;28;20078;-71
2021/08/24 04:23:45;;;;;;;2.10;1.30;;;19.80;71.90;;;;;;5095335;28;20040;-71
2021/08/24 04:26:12;;;;;;;2.20;1.17;;;19.80;72.00;;;;;;5098096;28;20435;-72
2021/08/24 04:28:38;;;;;;;2.80;1.73;;;19.80;71.90;;;;;;5098060;28;20074;-69
2021/08/24 04:31:05;;;;;;;2.70;1.30;;;19.80;71.60;;;;;;5097929;28;20466;-70
2021/08/24 04:33:33;;;;;;;3.85;1.20;;;19.80;71.10;;;;;;5088724;28;20339;-71
2021/08/24 04:35:59;;;;;;;7.63;1.52;;;19.80;70.70;;;;;;5082924;28;20448;-71
2021/08/24 04:38:24;;;;;;;5.55;1.75;;;19.80;70.50;;;;;;5077357;28;20105;-72
2021/08/24 04:40:50;;;;;;;3.55;1.70;;;19.70;70.30;;;;;;5079148;28;20090;-70
2021/08/24 04:43:17;;;;;;;5.45;1.67;;;19.70;70.20;;;;;;5098143;28;20123;-70
2021/08/24 04:45:43;;;;;;;3.53;2.05;;;19.70;70.10;;;;;;5098213;28;20437;-69
2021/08/24 04:48:09;;;;;;;5.32;1.90;;;19.70;69.20;;;;;;5097801;28;20036;-71
2021/08/24 04:50:36;;;;;;;8.07;2.15;;;19.60;68.70;;;;;;5094158;28;20047;-71
2021/08/24 04:53:01;;;;;;;6.85;2.08;;;19.50;68.60;;;;;;5077811;28;20047;-70
2021/08/24 04:55:27;;;;;;;5.85;2.35;;;19.30;68.50;;;;;;5077324;28;20036;-70
2021/08/24 04:57:53;;;;;;;6.15;2.40;;;19.30;68.70;;;;;;5082742;28;20407;-70
2021/08/24 05:00:19;;;;;;;6.22;2.35;;;19.20;68.80;;;;;;5084271;28;20113;-71
2021/08/24 05:02:44;;;;;;;3.97;2.40;;;19.10;69.00;;;;;;5088027;28;20609;-70
2021/08/24 05:05:10;;;;;;;6.68;2.20;;;19.00;69.00;;;;;;5085594;28;20111;-70
2021/08/24 05:07:36;;;;;;;4.20;2.15;;;18.90;69.10;;;;;;5095638;28;20109;-69
2021/08/24 05:10:03;;;;;;;6.03;2.05;;;18.80;69.00;;;;;;5097186;28;20047;-70
2021/08/24 05:12:30;;;;;;;6.18;2.47;;;18.80;69.10;;;;;;5097733;28;20055;-69
2021/08/24 05:14:55;;;;;;;4.82;2.30;;;18.70;69.50;;;;;;5096697;28;20056;-70
2021/08/24 05:17:21;;;;;;;6.18;2.25;;;18.70;69.80;;;;;;5077147;28;20127;-70
2021/08/24 05:19:47;;;;;;;7.22;2.08;;;18.60;70.00;;;;;;5095572;28;20030;-70
2021/08/24 05:22:13;;;;;;;5.55;2.38;;;18.60;70.20;;;;;;5097431;28;20087;-70
2021/08/24 05:24:38;;;;;;;8.75;2.40;;;18.60;70.40;;;;;;5096893;28;20474;-70
2021/08/24 05:27:05;;;;;;;4.93;2.50;;;18.60;70.70;;;;;;5097487;28;20406;-71
2021/08/24 05:29:31;;;;;;;5.47;1.95;;;18.50;70.80;;;;;;5085053;28;20352;-69
2021/08/24 05:31:57;;;;;;;4.05;1.92;;;18.50;71.00;;;;;;5077007;28;20040;-73
2021/08/24 05:34:23;;;;;;;3.85;2.00;;;18.50;71.40;;;;;;5076538;28;20045;-71
2021/08/24 05:36:48;;;;;;;4.55;1.65;;;18.50;71.70;;;;;;5075932;28;20040;-70
2021/08/24 05:39:14;;;;;;;5.80;1.88;;;18.60;71.70;;;;;;5076579;28;20032;-71
2021/08/24 05:41:40;;;;;;;3.38;1.48;;;18.60;71.80;;;;;;5076600;28;20052;-72
2021/08/24 05:44:07;;;;;;;6.25;1.63;;;18.70;71.90;;;;;;5076345;28;20037;-72
2021/08/24 05:46:33;;;;;;;4.43;1.63;;;18.70;71.90;;;;;;5076550;28;20054;-73
2021/08/24 05:48:59;;;;;;;6.75;2.30;;;18.70;71.90;;;;;;5076336;28;20045;-71
2021/08/24 05:51:25;;;;;;;5.78;1.77;;;18.80;72.00;;;;;;5076355;28;20044;-72
2021/08/24 05:53:52;;;;;;;3.15;1.13;;;18.80;72.00;;;;;;5075996;28;20052;-71
2021/08/24 05:56:21;;;;;;;6.13;1.42;;;18.90;72.10;;;;;;5080340;28;20071;-71
2021/08/24 05:58:47;;;;;;;4.03;1.40;;;18.90;72.10;;;;;;5096597;28;20126;-71
2021/08/24 06:01:24;;;;;;;3.85;1.20;;;19.00;72.20;;;;;;5096126;28;20135;-72
2021/08/24 06:03:51;;;;;;;4.80;1.60;;;19.00;72.10;;;;;;5096255;28;20048;-72
2021/08/24 06:06:32;;;;;;;3.65;1.42;;;19.10;72.20;;;;;;5093161;28;20040;-73
2021/08/24 06:08:59;;;;;;;2.63;1.45;;;19.10;72.20;;;;;;5058206;28;20041;-72
2021/08/24 06:11:36;;;;;;;4.15;1.40;;;19.10;72.20;;;;;;5075876;28;20048;-74
2021/08/24 06:14:03;;;;;;;4.13;1.10;;;19.20;72.30;;;;;;5075847;28;20090;-73
2021/08/24 06:16:30;;;;;;;5.03;1.23;;;19.20;72.40;;;;;;5074586;28;20443;-73
2021/08/24 06:18:55;;;;;;;4.30;1.48;;;19.30;72.50;;;;;;5075565;28;20044;-72
2021/08/24 06:21:21;;;;;;;6.65;1.50;;;19.30;72.40;;;;;;5074742;28;20127;-72
2021/08/24 06:23:48;;;;;;;3.55;1.17;;;19.30;72.40;;;;;;5075593;28;20207;-70
2021/08/24 06:26:15;;;;;;;7.18;1.70;;;19.40;72.40;;;;;;5075399;28;20082;-72
2021/08/24 06:28:41;;;;;;;3.90;1.77;;;19.30;72.30;;;;;;5076287;28;20036;-72
2021/08/24 06:31:07;;;;;;;3.03;1.30;;;19.40;72.20;;;;;;5057905;28;20381;-71
2021/08/24 06:33:38;;;;;;;4.43;1.40;;;19.40;72.00;;;;;;5057577;28;20454;-72
2021/08/24 06:36:05;;;;;;;4.40;1.55;;;19.40;71.90;;;;;;5075385;28;20427;-72
2021/08/24 06:38:31;;;;;;;4.50;1.52;;;19.40;71.80;;;;;;5077238;28;20036;-71
2021/08/24 06:40:58;;;;;;;4.18;1.30;;;19.40;71.80;;;;;;5096052;28;20070;-72
2021/08/24 06:43:24;;;;;;;2.58;1.25;;;19.40;71.80;;;;;;5095377;28;20039;-71
2021/08/24 06:45:50;;;;;;;2.53;1.08;;;19.50;71.90;;;;;;5095287;28;20097;-71
2021/08/24 06:48:16;;;;;;;5.07;1.63;;;19.40;71.90;;;;;;5095538;28;20044;-71
2021/08/24 06:50:43;;;;;;;4.68;1.85;;;19.40;72.00;;;;;;5095105;28;20043;-72
2021/08/24 06:53:09;;;;;;;5.88;1.65;;;19.40;72.00;;;;;;5075237;28;20036;-72
2021/08/24 06:55:38;;;;;;;2.78;1.30;;;19.40;72.10;;;;;;5076008;28;20048;-72
2021/08/24 06:58:07;;;;;;;4.22;1.27;;;19.40;72.10;;;;;;5075022;28;20070;-72
2021/08/24 07:00:34;;;;;;;4.32;1.27;;;19.40;72.20;;;;;;5074616;28;20044;-73
2021/08/24 07:02:59;;;;;;;2.60;1.27;;;19.50;72.30;;;;;;5075251;28;20048;-71
2021/08/24 07:05:29;;;;;;;2.92;1.27;;;19.50;72.40;;;;;;5094318;28;20036;-79
2021/08/24 07:07:55;;;;;;;3.03;1.20;;;19.50;72.40;;;;;;5077600;28;20074;-81
2021/08/24 07:10:22;;;;;;;3.63;1.35;;;19.50;72.50;;;;;;5095237;28;20055;-79
2021/08/24 07:12:48;;;;;;;2.40;1.38;;;19.50;72.60;;;;;;5095584;28;20350;-77
2021/08/24 07:15:16;;;;;;;4.35;1.15;;;19.60;72.70;;;;;;5061084;28;20043;-73
2021/08/24 07:17:43;;;;;;;6.40;1.50;;;19.60;72.70;;;;;;5093965;28;20036;-73
2021/08/24 07:20:12;;;;;;;3.17;1.08;;;19.60;72.80;;;;;;5077734;28;20071;-72
2021/08/24 07:22:38;;;;;;;6.32;1.70;;;19.70;72.90;;;;;;5082148;28;20045;-72
2021/08/24 07:25:08;;;;;;;6.65;1.30;;;19.70;73.20;;;;;;5085896;28;20044;-73
2021/08/24 07:27:33;;;;;;;3.95;1.30;;;19.70;73.20;;;;;;5096243;28;20161;-72
2021/08/24 07:29:59;;;;;;;6.35;1.95;;;19.80;73.20;;;;;;5096696;28;20040;-76
2021/08/24 07:32:25;;;;;;;3.85;1.42;;;19.80;73.40;;;;;;5081724;28;20043;-77
2021/08/24 07:34:51;;;;;;;6.65;1.63;;;19.80;73.50;;;;;;5099792;28;20040;-77
2021/08/24 07:37:16;;;;;;;8.60;1.60;;;19.80;73.40;;;;;;5099539;28;20188;-74
2021/08/24 07:39:43;;;;;;;10.50;1.48;;;19.90;73.60;;;;;;5099386;28;20047;-72
2021/08/24 07:42:09;;;;;;;7.75;1.17;;;19.90;74.20;;;;;;5099032;28;20040;-73
2021/08/24 07:44:35;;;;;;;6.30;1.77;;;20.00;73.60;;;;;;5090169;28;20059;-74
2021/08/24 07:47:01;;;;;;;6.38;1.60;;;20.00;73.50;;;;;;5092075;28;20118;-72
2021/08/24 07:49:30;;;;;;;5.88;1.70;;;20.00;73.30;;;;;;5099338;28;20126;-73
2021/08/24 07:51:55;;;;;;;7.93;1.73;;;20.00;73.30;;;;;;5099187;28;20039;-73
2021/08/24 07:54:22;;;;;;;6.95;1.58;;;20.10;73.20;;;;;;5098824;28;20431;-72
2021/08/24 07:56:48;;;;;;;14.02;1.90;;;20.10;73.10;;;;;;5098537;28;20436;-73
2021/08/24 07:59:14;;;;;;;7.88;1.38;;;20.10;73.10;;;;;;5097968;28;20040;-75
2021/08/24 08:01:40;;;;;;;8.02;2.17;;;20.10;73.00;;;;;;5094795;28;20384;-75
2021/08/24 08:04:05;;;;;;;4.63;1.67;;;20.10;72.60;;;;;;5079265;28;20475;-76
2021/08/24 08:06:35;;;;;;;6.47;1.65;;;20.10;72.80;;;;;;5078741;28;20430;-80
2021/08/24 08:09:01;;;;;;;4.93;1.10;;;20.10;72.00;;;;;;5077626;28;20384;-74
2021/08/24 08:11:29;;;;;;;3.47;1.42;;;20.10;71.90;;;;;;5077962;28;20036;-75
2021/08/24 08:13:55;;;;;;;4.13;1.38;;;20.10;71.80;;;;;;5077761;28;20052;-75
2021/08/24 08:16:20;;;;;;;6.10;1.65;;;20.20;72.00;;;;;;5061446;28;20044;-76
2021/08/24 08:18:50;;;;;;;2.20;1.17;;;20.20;72.00;;;;;;5078267;28;20040;-73
2021/08/24 08:21:16;;;;;;;3.20;1.17;;;20.20;72.00;;;;;;5078319;28;20097;-73
2021/08/24 08:23:42;;;;;;;3.05;1.20;;;20.20;72.10;;;;;;5078445;28;20343;-72
2021/08/24 08:26:08;;;;;;;4.88;1.00;;;20.20;72.20;;;;;;5078113;28;20032;-72
2021/08/24 08:28:34;;;;;;;7.75;1.30;;;20.20;72.20;;;;;;5077936;28;20044;-75
2021/08/24 08:31:03;;;;;;;4.60;1.58;;;20.30;72.30;;;;;;5060758;28;20056;-76
2021/08/24 08:33:30;;;;;;;3.35;1.13;;;20.30;72.30;;;;;;5077442;28;20059;-75
2021/08/24 08:35:56;;;;;;;3.58;1.30;;;20.30;72.40;;;;;;5077667;28;20037;-81
2021/08/24 08:38:23;;;;;;;8.82;1.30;;;20.30;72.30;;;;;;5043021;28;20032;-75
2021/08/24 08:41:15;;;;;;;5.28;1.15;;;20.40;72.30;;;;;;5076784;28;20044;-75
2021/08/24 08:43:58;;;;;;;4.70;0.93;;;20.40;72.20;;;;;;5084348;28;20041;-74
2021/08/24 08:47:00;;;;;;;5.57;1.20;;;20.40;72.00;;;;;;5077864;28;20439;-71
2021/08/24 08:49:38;;;;;;;4.88;1.23;;;20.40;72.20;;;;;;5090416;28;20048;-72
2021/08/24 08:52:19;;;;;;;8.45;1.45;;;20.50;72.00;;;;;;5097958;28;20087;-71
2021/08/24 08:55:20;;;;;;;2.03;1.02;;;20.50;72.20;;;;;;5097711;28;20051;-71
2021/08/24 08:58:16;;;;;;;4.70;0.93;;;20.50;72.30;;;;;;5097510;28;20040;-71
2021/08/24 09:00:48;;;;;;;4.60;1.08;;;20.50;72.30;;;;;;5091799;28;20102;-71
2021/08/24 09:03:23;;;;;;;4.55;1.00;;;20.50;72.40;;;;;;5077253;28;20080;-71
2021/08/24 09:05:49;;;;;;;7.07;1.42;;;20.50;72.40;;;;;;5077802;28;20105;-71
2021/08/24 09:08:20;;;;;;;2.40;0.80;;;20.50;72.40;;;;;;5076977;28;20463;-71
2021/08/24 09:11:06;;;;;;;3.50;1.17;;;20.50;72.30;;;;;;5077152;28;20041;-71
2021/08/24 09:13:48;;;;;;;5.00;1.10;;;20.50;72.30;;;;;;5077166;28;20048;-71
2021/08/24 09:16:14;;;;;;;4.28;1.02;;;20.60;72.40;;;;;;5077448;28;20451;-71
2021/08/24 09:19:00;;;;;;;4.07;1.17;;;20.50;72.40;;;;;;5077237;28;20045;-71
2021/08/24 09:21:29;;;;;;;4.32;0.90;;;20.50;72.50;;;;;;5077191;28;20131;-71
2021/08/24 09:23:58;;;;;;;1.98;0.80;;;20.60;72.60;;;;;;5077074;28;20044;-71
2021/08/24 09:26:44;;;;;;;1.88;0.90;;;20.60;72.60;;;;;;5076793;28;20129;-71
2021/08/24 09:29:11;;;;;;;2.40;0.90;;;20.60;72.60;;;;;;5076936;28;20040;-71
2021/08/24 09:31:38;;;;;;;2.85;0.80;;;20.60;72.60;;;;;;5077009;28;20048;-71
2021/08/24 09:34:04;;;;;;;3.38;0.70;;;20.60;72.60;;;;;;5077029;28;20040;-71
2021/08/24 09:36:30;;;;;;;4.00;1.10;;;20.60;72.60;;;;;;5077061;28;20040;-71
2021/08/24 09:38:58;;;;;;;1.92;0.70;;;20.60;72.60;;;;;;5092310;28;20089;-70
2021/08/24 09:41:32;;;;;;;4.57;1.13;;;20.60;72.60;;;;;;5076929;28;20052;-71
2021/08/24 09:44:27;;;;;;;7.72;1.23;;;20.60;73.20;;;;;;5092246;28;20043;-74
2021/08/24 09:47:03;;;;;;;16.45;1.50;;;20.70;72.50;;;;;;5096448;28;20047;-73
2021/08/24 09:49:36;;;;;;;5.07;1.08;;;20.60;72.30;;;;;;5096324;28;20036;-76
2021/08/24 09:52:21;;;;;;;3.53;0.88;;;20.70;72.50;;;;;;5096169;28;20036;-72
2021/08/24 09:54:54;;;;;;;9.23;1.45;;;20.70;72.40;;;;;;5096605;28;20050;-72
2021/08/24 09:57:29;;;;;;;8.05;1.13;;;20.70;72.80;;;;;;5096381;28;20039;-72
2021/08/24 10:00:23;;;;;;;5.15;1.23;;;20.70;72.70;;;;;;5096436;28;20035;-71
2021/08/24 10:02:53;;;;;;;8.05;1.88;;;20.70;72.40;;;;;;5096489;28;20054;-72
2021/08/24 10:05:21;;;;;;;4.00;0.98;;;20.70;72.40;;;;;;5078770;28;20374;-72
2021/08/24 10:07:49;;;;;;;4.07;1.40;;;20.80;72.50;;;;;;5096572;28;20040;-72
2021/08/24 10:10:35;;;;;;;9.32;2.03;;;20.80;72.50;;;;;;5062004;28;20044;-72
2021/08/24 10:13:22;;;;;;;6.03;0.98;;;20.80;72.70;;;;;;5076574;28;20186;-72
2021/08/24 10:15:49;;;;;;;3.78;1.20;;;20.80;72.50;;;;;;5075865;28;20044;-72
2021/08/24 10:18:26;;;;;;;2.95;1.25;;;20.80;72.70;;;;;;5075872;28;20082;-75
2021/08/24 10:20:52;;;;;;;3.22;1.02;;;20.80;72.60;;;;;;5075619;28;20435;-74
2021/08/24 10:23:34;;;;;;;3.63;1.20;;;20.80;72.60;;;;;;5075695;28;20094;-74
2021/08/24 10:26:04;;;;;;;3.10;0.95;;;20.90;72.50;;;;;;5075917;28;20088;-73
2021/08/24 10:28:56;;;;;;;5.10;1.25;;;20.90;72.60;;;;;;5075587;28;20067;-74
2021/08/24 10:32:03;;;;;;;2.10;0.90;;;20.90;73.20;;;;;;5075075;28;20052;-74
2021/08/24 10:34:40;;;;;;;3.47;1.02;;;20.90;72.40;;;;;;5072748;28;20049;-73
2021/08/24 10:37:14;;;;;;;2.65;0.80;;;20.90;72.50;;;;;;5079951;28;20359;-74
2021/08/24 10:39:40;;;;;;;4.57;0.95;;;20.90;72.50;;;;;;5095656;28;20044;-79
2021/08/24 10:42:15;;;;;;;4.57;1.20;;;20.90;72.90;;;;;;5093298;28;20043;-73
2021/08/24 10:44:46;;;;;;;4.20;1.20;;;20.90;73.10;;;;;;5089972;28;20040;-72
2021/08/24 10:47:14;;;;;;;3.55;0.85;;;20.90;73.40;;;;;;5077971;28;20063;-72
2021/08/24 10:49:40;;;;;;;8.35;1.90;;;20.90;73.20;;;;;;5095813;28;20036;-72
2021/08/24 10:52:20;;;;;;;5.53;1.00;;;20.90;73.30;;;;;;5095388;28;20051;-72
2021/08/24 10:54:54;;;;;;;6.47;1.45;;;21.00;72.90;;;;;;5095755;28;20047;-77
2021/08/24 10:57:38;;;;;;;6.22;1.55;;;21.00;73.00;;;;;;5095532;28;20044;-70
2021/08/24 11:00:10;;;;;;;6.10;1.33;;;20.90;73.00;;;;;;5074881;28;20048;-73
2021/08/24 11:02:42;;;;;;;4.05;1.50;;;20.90;72.80;;;;;;5074518;28;20128;-73
2021/08/24 11:05:25;;;;;;;6.75;1.13;;;20.90;72.90;;;;;;5075106;28;20048;-73
2021/08/24 11:08:16;;;;;;;4.35;0.98;;;21.00;72.90;;;;;;5075029;28;20058;-72
2021/08/24 11:10:49;;;;;;;3.42;1.30;;;20.90;73.10;;;;;;5082227;28;20048;-72
2021/08/24 11:13:26;;;;;;;7.05;1.55;;;21.00;73.20;;;;;;5094063;28;20050;-72
2021/08/24 11:16:15;;;;;;;4.53;1.52;;;21.00;73.00;;;;;;5080375;28;20457;-72
2021/08/24 11:18:49;;;;;;;4.72;1.23;;;21.00;72.90;;;;;;5075485;28;20386;-72
2021/08/24 11:21:47;;;;;;;19.70;2.47;;;21.00;72.80;;;;;;5074359;28;20109;-72
2021/08/24 11:24:28;;;;;;;5.65;1.48;;;21.00;72.90;;;;;;5089559;28;20052;-72
2021/08/24 11:27:08;;;;;;;8.43;1.10;;;21.00;72.70;;;;;;5076799;28;20110;-72
2021/08/24 11:29:42;;;;;;;5.45;0.98;;;21.00;72.70;;;;;;5095416;28;20343;-72
2021/08/24 11:32:11;;;;;;;8.32;1.20;;;21.00;72.80;;;;;;5092077;28;20076;-74
2021/08/24 11:34:46;;;;;;;10.10;1.42;;;21.00;73.00;;;;;;5095522;28;20046;-73
2021/08/24 11:37:19;;;;;;;8.55;1.52;;;21.00;72.70;;;;;;5072163;28;20048;-73
2021/08/24 11:39:48;;;;;;;6.72;1.35;;;21.00;72.10;;;;;;5074830;28;20044;-73
2021/08/24 11:42:24;;;;;;;2.90;1.10;;;21.00;71.90;;;;;;5074497;28;20036;-74
2021/08/24 11:44:54;;;;;;;4.20;1.13;;;21.00;71.50;;;;;;5074815;28;20115;-74
2021/08/24 11:47:39;;;;;;;4.38;1.30;;;21.00;71.50;;;;;;5075113;28;20040;-73
2021/08/24 11:50:09;;;;;;;5.47;1.00;;;21.00;71.50;;;;;;5074391;28;20147;-75
2021/08/24 11:52:39;;;;;;;4.35;1.17;;;20.90;71.60;;;;;;5074420;28;20394;-74
2021/08/24 11:55:20;;;;;;;3.60;1.30;;;21.00;71.60;;;;;;5074642;28;20060;-74
2021/08/24 11:58:24;;;;;;;3.13;0.90;;;21.00;71.40;;;;;;5075511;28;20040;-74
2021/08/24 12:00:54;;;;;;;6.03;1.45;;;21.00;71.40;;;;;;5074454;28;20439;-74
2021/08/24 12:03:22;;;;;;;10.20;1.40;;;21.00;71.50;;;;;;5075180;28;20044;-74
2021/08/24 12:06:07;;;;;;;9.10;1.85;;;21.00;71.60;;;;;;5074483;28;20340;-73
2021/08/24 12:08:41;;;;;;;5.53;1.13;;;21.00;71.70;;;;;;5074587;28;20046;-74
2021/08/24 12:11:11;;;;;;;5.38;1.10;;;21.00;71.70;;;;;;5074031;28;20076;-72
2021/08/24 12:13:46;;;;;;;4.35;1.20;;;21.00;71.70;;;;;;5075266;28;20084;-72
2021/08/24 12:16:29;;;;;;;8.00;1.67;;;21.00;71.90;;;;;;5078096;28;20178;-71
2021/08/24 12:19:12;;;;;;;;;;;21.00;71.90;;;;;;5078249;28;20098;-73
2021/08/24 12:21:55;;;;;;;6.32;1.15;;;21.00;71.90;;;;;;5078010;28;19916;-72
2021/08/24 12:24:24;;;;;;;7.28;1.85;;;20.90;72.20;;;;;;5077652;28;20364;-72
2021/08/24 12:27:09;;;;;;;3.92;1.38;;;21.00;72.40;;;;;;5077965;28;20056;-74
2021/08/24 12:29:35;;;;;;;3.67;1.20;;;21.00;72.30;;;;;;5079714;28;20058;-73
2021/08/24 12:32:11;;;;;;;5.00;1.20;;;21.00;72.40;;;;;;5077823;28;20037;-73
2021/08/24 12:34:38;;;;;;;5.63;1.10;;;21.00;72.30;;;;;;5077617;28;20066;-73
2021/08/24 12:37:19;;;;;;;3.35;1.20;;;21.00;72.50;;;;;;5082118;28;20040;-73
2021/08/24 12:39:47;;;;;;;5.55;1.00;;;21.00;72.40;;;;;;5098047;28;20104;-73
2021/08/24 12:42:27;;;;;;;9.52;1.60;;;21.00;72.50;;;;;;5097251;28;20462;-73
2021/08/24 12:44:58;;;;;;;4.88;1.38;;;20.90;72.40;;;;;;5098384;28;20040;-73
2021/08/24 12:47:30;;;;;;;8.05;1.42;;;21.00;72.50;;;;;;5098054;28;20129;-73
2021/08/24 12:50:08;;;;;;;3.13;0.98;;;21.00;72.50;;;;;;5097880;28;20443;-72
2021/08/24 12:52:43;;;;;;;2.15;0.90;;;21.00;72.40;;;;;;5097834;28;20339;-73
2021/08/24 12:55:32;;;;;;;4.55;1.35;;;21.00;72.50;;;;;;5097778;28;20079;-73
2021/08/24 12:58:15;;;;;;;4.15;0.90;;;21.00;72.30;;;;;;5082684;28;20066;-73
2021/08/24 13:00:43;;;;;;;6.47;1.45;;;21.00;72.40;;;;;;5097437;28;20044;-73
2021/08/24 13:03:20;;;;;;;3.88;1.10;;;21.00;72.50;;;;;;5097868;28;20130;-73
2021/08/24 13:05:48;;;;;;;3.15;1.20;;;21.00;72.50;;;;;;5097565;28;20052;-73
2021/08/24 13:08:26;;;;;;;5.57;0.93;;;21.00;72.50;;;;;;5097620;28;20087;-73
2021/08/24 13:10:55;;;;;;;2.60;0.95;;;21.00;72.40;;;;;;5098142;28;20050;-73